This is the latest recevied weather packets stored in our database for station/object KF6ILA. If no packets are shown the sender has not sent any weather packets the latest 1 day(s).
| Time | Temp. | Humidity | Pressure | Rain* | Wind** | Luminosity | Snow |
|---|---|---|---|---|---|---|---|
| 1778019744 | 9.44° C | 81% | 1010.4 hPa | 0 mm | 8.94 m/s, 255° | 1063 W/m² | - |
| 1778018853 | 8.89° C | 81% | 1011.3 hPa | 0 mm | 8.94 m/s, 265° | 350 W/m² | - |
| 1778018556 | 9.44° C | 82% | 1011.3 hPa | 0 mm | 8.94 m/s, 251° | 1102 W/m² | - |
| 1778018259 | 8.89° C | 85% | 1011.3 hPa | 0 mm | 6.71 m/s, 263° | 1208 W/m² | - |
| 1778017962 | 8.33° C | 85% | 1011.4 hPa | 0 mm | 9.83 m/s, 260° | 318 W/m² | - |
| 1778017665 | 8.89° C | 88% | 1011.3 hPa | 0 mm | 4.92 m/s, 282° | 399 W/m² | - |
| 1778017368 | 8.33° C | 90% | 1011.4 hPa | 0 mm | 8.49 m/s, 266° | 492 W/m² | - |
| 1778017072 | 7.78° C | 91% | 1011.6 hPa | 0 mm | 7.15 m/s, 257° | 492 W/m² | - |
| 1778016774 | 7.78° C | 92% | 1011.5 hPa | 0 mm | 6.26 m/s, 269° | 274 W/m² | - |
| 1778016513 | 7.22° C | 93% | 1011.7 hPa | 0 mm | 6.71 m/s, 261° | 418 W/m² | - |
| 1778016477 | 7.22° C | 93% | 1011.7 hPa | 0 mm | 6.71 m/s, 261° | 418 W/m² | - |
| 1778016180 | 7.22° C | 93% | 1011.6 hPa | 0 mm | 8.05 m/s, 261° | 253 W/m² | - |
| 1778015883 | 7.22° C | 93% | 1011.7 hPa | 0 mm | 6.26 m/s, 267° | 378 W/m² | - |
| 1778015626 | 7.22° C | 93% | 1011.8 hPa | 0 mm | 6.26 m/s, 259° | 304 W/m² | - |
| 1778015586 | 7.22° C | 93% | 1011.8 hPa | 0 mm | 6.26 m/s, 259° | 304 W/m² | - |
| 1778015289 | 7.78° C | 92% | 1011.8 hPa | 0 mm | 8.05 m/s, 261° | 410 W/m² | - |
| 1778014992 | 7.78° C | 93% | 1011.7 hPa | 0 mm | 7.6 m/s, 268° | 775 W/m² | - |
| 1778014730 | 7.22° C | 93% | 1011.9 hPa | 0 mm | 8.94 m/s, 260° | 527 W/m² | - |
| 1778014696 | 7.22° C | 93% | 1011.9 hPa | 0 mm | 8.94 m/s, 260° | 527 W/m² | - |
| 1778014398 | 7.22° C | 93% | 1012 hPa | 0 mm | 7.15 m/s, 253° | 527 W/m² | - |
| 1778013804 | 7.22° C | 94% | 1011.7 hPa | 0 mm | 6.26 m/s, 254° | 413 W/m² | - |
| 1778013210 | 7.78° C | 97% | 1011.6 hPa | 0 mm | 6.71 m/s, 262° | 643 W/m² | - |
| 1778012913 | 7.78° C | 97% | 1011.6 hPa | 0 mm | 8.94 m/s, 252° | 534 W/m² | - |
| 1778012319 | 7.22° C | 99% | 1011.9 hPa | 0 mm | 8.49 m/s, 254° | 926 W/m² | - |
| 1778012022 | 7.22° C | 100% | 1011.8 hPa | 0 mm | 8.94 m/s, 267° | 926 W/m² | - |
* Rain latest hour (hover to see other rain measurements)
** Current wind speed in m/s (hover to see current wind gust speed)